Hammond, Illinois
Current Conditions -  °F | °C
As of 8:54 PM on Friday 28 Nov 2014 (Local Time) from KDEC Reporting Station
Clear Clear  
Wind Chill: 29°   Ceiling: Unl
Heat Index: 38°   Visibility: 10mi
Dew Point: 30°   Wind: 16mph
Humidity: 73%   Direction: 180°S
Pressure: 29.92"   Gusts: 28mph
Location:  39.8°N, 88.59°W
Report Text: KDEC 290254Z 18014G24KT 10SM CLR 03/M01 A2992 RMK AO2 SLP139 T00331011 58023
Loading
Personal Weather Stations






























Interactive Weather Map New forecast layout! Learn more

10-Day Weather Forecast

Advertisements
Track Severe Weather on mobile